Latest Weather Observations for Mount Lofty

IDS60801

Issued at 6:31 pm CST Wednesday 29 June 2016 (issued every 30 minutes, with the page automatically refreshed every 10 minutes)

About weather observations | Map of weather stations | Latest weather observations for SA | Other Formats
Station Details ID: 023842 Name: MOUNT LOFTY Lat: -34.98 Lon: 138.71 Height: 685.0 m
Data from the previous 72 hours. | See also: Recent months at Mount Lofty
Date/Time
CST
Temp
°C
App
Temp
°C
Dew
Point
°C
Rel
Hum
%
Delta-T
°C
Wind Press
QNH
hPa
Press
MSL
hPa
Rain since
9am
mm
Dir  Spd
km/h
Gust
km/h
Spd
kts
Gust
kts
29/06:30pm 5.9 -0.6 2.5 79 1.5 NW 26 44 14 24 - - 0.0
29/06:00pm 6.2 0.0 2.3 76 1.7 NW 24 43 13 23 - - 0.0
29/05:36pm 6.3 -0.6 2.4 76 1.7 NW 28 50 15 27 - - 0.0
29/05:30pm 6.3 -0.2 2.6 77 1.6 NW 26 43 14 23 - - 0.0
29/05:00pm 6.6 -0.3 2.7 76 1.7 NW 28 57 15 31 - - 0.0
29/04:32pm 6.3 -1.0 2.4 76 1.7 NW 30 57 16 31 - - 0.0
29/04:30pm 6.3 -0.6 2.4 76 1.7 NW 28 44 15 24 - - 0.0
29/04:00pm 6.5 -1.4 2.0 73 1.9 NW 33 67 18 36 - - 0.0
29/03:30pm 6.5 -0.8 2.6 76 1.7 NW 30 59 16 32 - - 0.0
29/03:00pm 6.5 -1.2 2.4 75 1.8 NW 32 63 17 34 - - 0.0
29/02:30pm 6.6 -1.3 2.1 73 1.9 NW 33 59 18 32 - - 0.0
29/02:00pm 6.4 -0.7 3.4 81 1.3 NW 30 61 16 33 - - 0.0
29/01:30pm 6.1 -0.6 3.6 84 1.1 NW 28 54 15 29 - - 0.0
29/01:01pm 6.0 -0.7 3.7 85 1.0 NW 28 46 15 25 - - 0.0
29/01:00pm 6.0 -1.1 3.5 84 1.1 NW 30 46 16 25 - - 0.0
29/12:34pm 6.1 -0.6 3.4 83 1.2 NW 28 52 15 28 - - 0.0
29/12:30pm 6.0 -0.3 3.7 85 1.0 NW 26 48 14 26 - - 0.0
29/12:00pm 6.0 -0.7 3.7 85 1.0 NW 28 50 15 27 - - 0.0
29/11:37am 6.0 -0.7 3.8 86 1.0 NW 28 46 15 25 - - 0.0
29/11:30am 6.1 -0.2 3.8 85 1.0 NW 26 50 14 27 - - 0.0
29/11:00am 6.0 0.1 3.7 85 1.0 NW 24 41 13 22 - - 0.0
29/10:30am 6.0 0.1 3.7 85 1.0 NW 24 43 13 23 - - 0.0
29/10:00am 6.0 0.8 3.8 86 1.0 NW 20 39 11 21 - - 0.0
29/09:30am 6.2 0.6 3.5 83 1.2 NW 22 43 12 23 - - 0.0
29/09:00am 6.4 0.8 3.4 81 1.3 NW 22 39 12 21 - - 0.0
29/08:30am 6.3 1.1 3.5 82 1.2 NW 20 39 11 21 - - 0.0
29/08:00am 6.5 0.9 3.3 80 1.4 NW 22 41 12 22 - - 0.0
29/07:30am 6.7 0.7 3.3 79 1.5 NW 24 39 13 21 - - 0.0
29/07:00am 6.5 0.8 3.1 79 1.5 NW 22 32 12 17 - - 0.0
29/06:30am 6.5 1.4 3.3 80 1.4 NW 19 35 10 19 - - 0.0
29/06:00am 6.8 1.5 3.1 77 1.6 NW 20 41 11 22 - - 0.0
29/05:30am 6.3 1.2 2.8 78 1.5 NW 19 33 10 18 - - 0.0
29/05:00am 6.1 0.7 2.4 77 1.6 NW 20 33 11 18 - - 0.0
29/04:30am 6.1 1.6 2.4 77 1.6 NW 15 28 8 15 - - 0.0
29/04:00am 6.1 1.6 2.0 75 1.7 NNW 15 26 8 14 - - 0.0
29/03:30am 6.5 2.0 2.0 73 1.9 NNW 15 26 8 14 - - 0.0
29/03:00am 6.5 2.0 2.0 73 1.9 NNW 15 33 8 18 - - 0.0
29/02:30am 6.6 2.2 2.5 75 1.8 NNW 15 30 8 16 - - 0.0
29/02:00am 6.6 2.1 2.3 74 1.8 NNW 15 28 8 15 - - 0.0
29/01:30am 6.7 2.2 2.2 73 1.9 NW 15 28 8 15 - - 0.0
29/01:00am 7.0 2.6 2.7 74 1.9 NW 15 28 8 15 - - 0.0
29/12:30am 7.1 2.2 2.2 71 2.1 NW 17 28 9 15 - - 0.0
29/12:00am 7.1 2.6 2.0 70 2.2 NW 15 24 8 13 - - 0.0
 
Date/Time
CST
Temp
°C
App
Temp
°C
Dew
Point
°C
Rel
Hum
%
Delta-T
°C
Wind Press
QNH
hPa
Press
MSL
hPa
Rain since
9am
mm
Dir  Spd
km/h
Gust
km/h
Spd
kts
Gust
kts
28/11:30pm 7.1 2.6 2.0 70 2.2 NW 15 30 8 16 - - 0.0
28/11:00pm 7.2 2.3 2.3 71 2.1 NW 17 32 9 17 - - 0.0
28/10:30pm 6.9 2.1 2.8 75 1.8 NW 17 24 9 13 - - 0.0
28/10:00pm 7.0 2.3 3.3 77 1.6 NW 17 28 9 15 - - 0.0
28/09:30pm 7.2 3.0 4.0 80 1.4 NW 15 26 8 14 - - 0.0
28/09:00pm 7.1 3.0 4.6 84 1.1 NW 15 24 8 13 - - 0.0
28/08:30pm 7.0 3.4 4.8 86 1.0 NW 13 24 7 13 - - 0.0
28/08:00pm 7.1 3.5 4.8 85 1.1 NW 13 22 7 12 - - 0.0
28/07:30pm 7.1 3.6 5.3 88 0.8 NW 13 20 7 11 - - 0.0
28/07:00pm 7.3 4.2 5.6 89 0.8 NW 11 19 6 10 - - 0.0
28/06:30pm 7.2 4.2 5.8 91 0.7 NW 11 20 6 11 - - 0.0
28/06:00pm 7.2 4.1 5.7 90 0.7 NW 11 20 6 11 - - 0.0
28/05:30pm 7.5 4.4 5.5 87 0.9 NW 11 19 6 10 - - 0.0
28/05:00pm 8.1 5.0 5.4 83 1.3 WNW 11 20 6 11 - - 0.0
28/04:30pm 8.6 5.3 6.4 86 1.1 NW 13 24 7 13 - - 0.0
28/04:00pm 8.8 5.5 6.6 86 1.1 WNW 13 20 7 11 - - 0.0
28/03:30pm 9.0 5.3 6.4 84 1.3 WNW 15 26 8 14 - - 0.0
28/03:00pm 9.3 5.2 6.0 80 1.6 WNW 17 28 9 15 - - 0.0
28/02:30pm 9.8 6.3 7.4 85 1.2 WNW 15 30 8 16 - - 0.0
28/02:00pm 9.1 5.3 7.7 91 0.7 WNW 17 28 9 15 - - 0.0
28/01:30pm 8.0 4.6 7.6 97 0.2 WNW 15 30 8 16 - - 0.0
28/01:00pm 7.7 3.9 7.4 98 0.1 NW 17 30 9 16 - - 0.0
28/12:30pm 7.5 4.4 7.2 98 0.1 WNW 13 22 7 12 - - 0.0
28/12:00pm 7.3 4.5 7.0 98 0.1 WNW 11 19 6 10 - - 0.0
28/11:30am 7.1 3.9 6.8 98 0.1 NW 13 20 7 11 - - 0.0
28/11:00am 6.8 3.5 6.5 98 0.1 NW 13 24 7 13 - - 0.0
28/10:30am 6.5 3.2 6.2 98 0.1 NW 13 24 7 13 - - 0.0
28/10:00am 6.1 2.3 5.8 98 0.1 NW 15 24 8 13 - - 0.0
28/09:30am 6.0 2.6 5.7 98 0.1 NW 13 24 7 13 - - 0.0
28/09:00am 5.9 2.4 5.6 98 0.1 NW 13 20 7 11 - - 0.0
28/08:30am 5.9 2.4 5.6 98 0.1 NW 13 22 7 12 - - 0.0
28/08:00am 5.9 2.4 5.6 98 0.1 NW 13 22 7 12 - - 0.0
28/07:30am 6.0 2.6 5.7 98 0.1 NW 13 20 7 11 - - 0.0
28/07:00am 6.2 2.4 5.9 98 0.1 WNW 15 24 8 13 - - 0.0
28/06:30am 6.3 2.9 6.0 98 0.1 WNW 13 22 7 12 - - 0.0
28/06:00am 6.3 2.9 6.0 98 0.1 WNW 13 24 7 13 - - 0.0
28/05:30am 6.2 2.8 5.9 98 0.1 NW 13 22 7 12 - - 0.0
28/05:00am 6.3 2.9 6.0 98 0.1 NW 13 24 7 13 - - 0.0
28/04:30am 6.2 2.8 5.9 98 0.1 WNW 13 22 7 12 - - 0.0
28/04:00am 6.3 2.5 6.0 98 0.1 NW 15 28 8 15 - - 0.0
28/03:30am 6.5 3.5 6.2 98 0.1 WNW 11 20 6 11 - - 0.0
28/03:00am 6.5 3.2 6.2 98 0.1 WNW 13 20 7 11 - - 0.0
28/02:30am 6.6 2.9 6.3 98 0.1 WNW 15 24 8 13 - - 0.0
28/02:00am 6.7 3.4 6.4 98 0.1 WNW 13 24 7 13 - - 0.0
28/01:30am 7.0 3.4 6.7 98 0.1 WNW 15 24 8 13 - - 0.0
28/01:00am 7.0 3.4 6.7 98 0.1 WNW 15 26 8 14 - - 0.0
28/12:30am 7.1 3.5 6.8 98 0.1 WNW 15 22 8 12 - - 0.0
28/12:00am 7.1 3.9 6.7 97 0.2 WNW 13 24 7 13 - - 0.0
 
Date/Time
CST
Temp
°C
App
Temp
°C
Dew
Point
°C
Rel
Hum
%
Delta-T
°C
Wind Press
QNH
hPa
Press
MSL
hPa
Rain since
9am
mm
Dir  Spd
km/h
Gust
km/h
Spd
kts
Gust
kts
27/11:30pm 7.2 3.6 6.8 97 0.2 WNW 15 28 8 15 - - 0.0
27/11:00pm 7.3 4.1 6.9 97 0.2 WNW 13 22 7 12 - - 0.0
27/10:30pm 7.2 4.4 6.8 97 0.2 WNW 11 19 6 10 - - 0.0
27/10:00pm 7.2 4.4 6.8 97 0.2 WNW 11 19 6 10 - - 0.0
27/09:30pm 7.0 4.1 6.6 97 0.2 WNW 11 20 6 11 - - 0.0
27/09:00pm 6.8 4.6 6.2 96 0.3 W 7 13 4 7 - - 0.0
27/08:30pm 6.5 3.8 5.6 94 0.4 WNW 9 17 5 9 - - 0.0
27/08:00pm 6.4 3.2 5.2 92 0.5 WNW 11 17 6 9 - - 0.0
27/07:30pm 6.7 3.9 5.0 89 0.8 WNW 9 17 5 9 - - 0.0
27/07:00pm 6.2 3.3 4.7 90 0.7 WNW 9 17 5 9 - - 0.0
27/06:30pm 6.1 3.6 4.6 90 0.7 WNW 7 15 4 8 - - 0.0
27/06:00pm 5.9 3.4 4.5 91 0.6 WNW 7 13 4 7 - - 0.0
27/05:30pm 6.3 3.8 4.5 88 0.8 WNW 7 11 4 6 - - 0.0
27/05:00pm 7.3 5.0 4.6 83 1.2 WNW 6 11 3 6 - - 0.0
27/04:30pm 8.2 5.7 4.8 79 1.6 W 7 15 4 8 - - 0.0
27/04:00pm 8.6 6.1 5.0 78 1.7 W 7 17 4 9 - - 0.0
27/03:30pm 9.1 6.7 5.3 77 1.8 W 7 19 4 10 - - 0.0
27/03:00pm 8.7 5.8 4.5 75 1.9 W 9 17 5 9 - - 0.0
27/02:30pm 9.1 6.2 4.7 74 2.0 W 9 17 5 9 - - 0.0
27/02:00pm 9.5 6.6 4.5 71 2.3 W 9 19 5 10 - - 0.0
27/01:30pm 8.4 5.4 4.0 74 2.0 W 9 17 5 9 - - 0.0
27/01:00pm 8.8 5.8 4.2 73 2.1 W 9 15 5 8 - - 0.0
27/12:30pm 8.1 5.6 4.7 79 1.6 W 7 15 4 8 - - 0.0
27/12:00pm 8.1 5.6 4.5 78 1.6 W 7 17 4 9 - - 0.0
27/11:30am 7.2 4.8 5.3 88 0.9 SW 7 15 4 8 - - 0.0
27/11:00am 6.8 4.6 6.1 95 0.3 WSW 7 13 4 7 - - 0.0
27/10:30am 6.5 4.3 6.1 97 0.2 WSW 7 13 4 7 - - 0.0
27/10:00am 6.5 4.3 6.2 98 0.1 SW 7 13 4 7 - - 0.0
27/09:30am 6.5 4.3 6.2 98 0.1 SW 7 13 4 7 - - 0.0
27/09:00am 6.4 4.2 6.1 98 0.1 WSW 7 17 4 9 - - 6.2
27/08:30am 6.6 4.4 6.3 98 0.1 WSW 7 15 4 8 - - 6.2
27/08:00am 6.5 4.5 6.2 98 0.1 SW 6 11 3 6 - - 6.2
27/07:30am 6.4 4.4 6.1 98 0.1 SSW 6 11 3 6 - - 6.0
27/07:00am 6.4 4.4 6.1 98 0.1 SW 6 11 3 6 - - 6.0
27/06:30am 6.3 4.2 6.0 98 0.1 SW 6 9 3 5 - - 6.0
27/06:00am 6.3 4.2 6.0 98 0.1 WSW 6 9 3 5 - - 6.0
27/05:30am 6.3 4.2 6.0 98 0.1 WNW 6 11 3 6 - - 6.0
27/05:00am 6.3 4.1 6.0 98 0.1 W 7 15 4 8 - - 5.8
27/04:30am 6.2 3.6 5.9 98 0.1 W 9 15 5 8 - - 5.4
27/04:00am 6.3 3.7 6.0 98 0.1 WNW 9 20 5 11 - - 5.0
27/03:30am 6.2 3.2 5.9 98 0.1 WNW 11 19 6 10 - - 4.0
27/03:00am 6.2 3.6 5.9 98 0.1 WNW 9 19 5 10 - - 3.6
27/02:30am 6.0 2.9 5.7 98 0.1 WNW 11 19 6 10 - - 3.2
27/02:00am 5.8 2.7 5.5 98 0.1 NW 11 19 6 10 - - 2.4
27/01:30am 5.6 2.4 5.2 97 0.2 NW 11 17 6 9 - - 2.0
27/01:00am 5.3 2.1 4.9 97 0.2 NW 11 19 6 10 - - 1.4
27/12:30am 5.2 1.6 4.8 97 0.2 NW 13 20 7 11 - - 1.0
27/12:00am 5.1 1.4 4.7 97 0.2 NW 13 19 7 10 - - 0.2
 
Date/Time
CST
Temp
°C
App
Temp
°C
Dew
Point
°C
Rel
Hum
%
Delta-T
°C
Wind Press
QNH
hPa
Press
MSL
hPa
Rain since
9am
mm
Dir  Spd
km/h
Gust
km/h
Spd
kts
Gust
kts
26/11:30pm 5.0 1.3 4.6 97 0.2 WNW 13 20 7 11 - - 0.2
26/11:00pm 5.0 1.3 4.6 97 0.2 WNW 13 19 7 10 - - 0.0
26/10:30pm 5.1 1.4 4.7 97 0.2 WNW 13 20 7 11 - - 0.0
26/10:00pm 5.5 1.5 5.1 97 0.2 NW 15 24 8 13 - - 0.0
26/09:30pm 5.3 1.6 4.7 96 0.3 NW 13 22 7 12 - - 0.0
26/09:00pm 5.3 1.6 4.6 95 0.3 NW 13 24 7 13 - - 0.0
26/08:30pm 5.1 1.4 4.4 95 0.3 NW 13 20 7 11 - - 0.0
26/08:00pm 5.2 1.9 4.5 95 0.3 NW 11 20 6 11 - - 0.0
26/07:30pm 5.3 1.6 4.6 95 0.3 NW 13 20 7 11 - - 0.0
26/07:00pm 5.6 2.0 4.9 95 0.3 NW 13 20 7 11 - - 0.0

Other Formats:

Comma delimited format used in spreadsheet applications
http://www.bom.gov.au/fwo/IDS60801/IDS60801.95678.axf

JavaScript Object Notation format (JSON) in row-major order
http://www.bom.gov.au/fwo/IDS60801/IDS60801.95678.json